sensor_id;sensor_type;location;lat;lon;timestamp;P1;durP1;ratioP1;P2;durP2;ratioP2
61685;SDS011;47592;45.904;8.978;2022-12-10T00:01:56;12.23;;;8.05;;
61685;SDS011;47592;45.904;8.978;2022-12-10T00:04:22;10.73;;;7.20;;
61685;SDS011;47592;45.904;8.978;2022-12-10T00:06:47;12.20;;;7.55;;
61685;SDS011;47592;45.904;8.978;2022-12-10T00:09:14;13.65;;;8.48;;
61685;SDS011;47592;45.904;8.978;2022-12-10T00:11:41;14.23;;;8.50;;
61685;SDS011;47592;45.904;8.978;2022-12-10T00:14:07;11.73;;;8.05;;
61685;SDS011;47592;45.904;8.978;2022-12-10T00:16:33;11.98;;;8.10;;
61685;SDS011;47592;45.904;8.978;2022-12-10T00:18:59;11.00;;;7.75;;
61685;SDS011;47592;45.904;8.978;2022-12-10T00:21:28;10.90;;;7.47;;
61685;SDS011;47592;45.904;8.978;2022-12-10T00:23:56;11.40;;;7.00;;
61685;SDS011;47592;45.904;8.978;2022-12-10T00:26:29;11.35;;;7.63;;
61685;SDS011;47592;45.904;8.978;2022-12-10T00:28:56;11.27;;;7.43;;
61685;SDS011;47592;45.904;8.978;2022-12-10T00:31:26;11.05;;;7.50;;
61685;SDS011;47592;45.904;8.978;2022-12-10T00:33:54;10.82;;;7.22;;
61685;SDS011;47592;45.904;8.978;2022-12-10T00:36:22;10.68;;;7.00;;
61685;SDS011;47592;45.904;8.978;2022-12-10T00:38:52;10.95;;;7.28;;
61685;SDS011;47592;45.904;8.978;2022-12-10T00:41:18;10.88;;;7.50;;
61685;SDS011;47592;45.904;8.978;2022-12-10T00:43:44;10.65;;;7.45;;
61685;SDS011;47592;45.904;8.978;2022-12-10T00:46:10;11.48;;;7.47;;
61685;SDS011;47592;45.904;8.978;2022-12-10T00:48:36;10.70;;;7.15;;
61685;SDS011;47592;45.904;8.978;2022-12-10T00:51:03;11.50;;;7.45;;
61685;SDS011;47592;45.904;8.978;2022-12-10T00:53:30;11.00;;;6.88;;
61685;SDS011;47592;45.904;8.978;2022-12-10T00:55:56;10.85;;;7.80;;
61685;SDS011;47592;45.904;8.978;2022-12-10T00:58:23;9.73;;;7.05;;
61685;SDS011;47592;45.904;8.978;2022-12-10T01:00:51;10.38;;;6.93;;
61685;SDS011;47592;45.904;8.978;2022-12-10T01:03:16;10.65;;;7.20;;
61685;SDS011;47592;45.904;8.978;2022-12-10T01:05:41;9.65;;;7.05;;
61685;SDS011;47592;45.904;8.978;2022-12-10T01:08:07;9.88;;;6.45;;
61685;SDS011;47592;45.904;8.978;2022-12-10T01:10:32;11.85;;;7.15;;
61685;SDS011;47592;45.904;8.978;2022-12-10T01:12:58;12.18;;;7.25;;
61685;SDS011;47592;45.904;8.978;2022-12-10T01:15:23;10.32;;;7.35;;
61685;SDS011;47592;45.904;8.978;2022-12-10T01:17:49;9.88;;;6.90;;
61685;SDS011;47592;45.904;8.978;2022-12-10T01:20:14;11.95;;;7.55;;
61685;SDS011;47592;45.904;8.978;2022-12-10T01:22:40;11.07;;;7.20;;
61685;SDS011;47592;45.904;8.978;2022-12-10T01:25:05;9.68;;;6.63;;
61685;SDS011;47592;45.904;8.978;2022-12-10T01:27:31;10.52;;;6.90;;
61685;SDS011;47592;45.904;8.978;2022-12-10T01:29:56;10.75;;;6.97;;
61685;SDS011;47592;45.904;8.978;2022-12-10T01:32:21;10.20;;;6.95;;
61685;SDS011;47592;45.904;8.978;2022-12-10T01:34:47;10.02;;;6.80;;
61685;SDS011;47592;45.904;8.978;2022-12-10T01:37:13;11.05;;;7.63;;
61685;SDS011;47592;45.904;8.978;2022-12-10T01:39:38;9.93;;;7.13;;
61685;SDS011;47592;45.904;8.978;2022-12-10T01:42:04;10.13;;;7.22;;
61685;SDS011;47592;45.904;8.978;2022-12-10T01:46:56;11.18;;;7.20;;
61685;SDS011;47592;45.904;8.978;2022-12-10T01:49:24;9.90;;;6.55;;
61685;SDS011;47592;45.904;8.978;2022-12-10T01:51:51;10.02;;;6.93;;
61685;SDS011;47592;45.904;8.978;2022-12-10T01:54:20;9.73;;;6.63;;
61685;SDS011;47592;45.904;8.978;2022-12-10T01:56:51;10.88;;;6.40;;
61685;SDS011;47592;45.904;8.978;2022-12-10T01:59:23;9.85;;;6.20;;
61685;SDS011;47592;45.904;8.978;2022-12-10T02:10:38;9.55;;;6.47;;
61685;SDS011;47592;45.904;8.978;2022-12-10T02:16:10;10.85;;;6.90;;
61685;SDS011;47592;45.904;8.978;2022-12-10T02:18:49;10.43;;;6.88;;
61685;SDS011;47592;45.904;8.978;2022-12-10T02:21:19;10.75;;;6.75;;
61685;SDS011;47592;45.904;8.978;2022-12-10T02:23:59;9.50;;;6.28;;
61685;SDS011;47592;45.904;8.978;2022-12-10T02:26:41;10.57;;;6.78;;
61685;SDS011;47592;45.904;8.978;2022-12-10T02:29:16;10.15;;;6.60;;
61685;SDS011;47592;45.904;8.978;2022-12-10T02:31:42;10.02;;;6.55;;
61685;SDS011;47592;45.904;8.978;2022-12-10T02:34:11;10.80;;;7.28;;
61685;SDS011;47592;45.904;8.978;2022-12-10T02:36:38;9.35;;;6.50;;
61685;SDS011;47592;45.904;8.978;2022-12-10T02:39:08;10.02;;;6.63;;
61685;SDS011;47592;45.904;8.978;2022-12-10T02:41:37;9.15;;;6.43;;
61685;SDS011;47592;45.904;8.978;2022-12-10T02:46:32;9.80;;;6.72;;
61685;SDS011;47592;45.904;8.978;2022-12-10T02:48:58;9.77;;;6.35;;
61685;SDS011;47592;45.904;8.978;2022-12-10T02:51:25;9.52;;;6.70;;
61685;SDS011;47592;45.904;8.978;2022-12-10T02:54:04;9.30;;;6.10;;
61685;SDS011;47592;45.904;8.978;2022-12-10T02:59:43;8.73;;;4.88;;
61685;SDS011;47592;45.904;8.978;2022-12-10T03:07:33;9.23;;;5.90;;
61685;SDS011;47592;45.904;8.978;2022-12-10T03:10:03;9.27;;;5.93;;
61685;SDS011;47592;45.904;8.978;2022-12-10T03:12:45;9.10;;;5.95;;
61685;SDS011;47592;45.904;8.978;2022-12-10T03:15:14;8.20;;;5.18;;
61685;SDS011;47592;45.904;8.978;2022-12-10T03:17:41;9.25;;;5.57;;
61685;SDS011;47592;45.904;8.978;2022-12-10T03:20:08;7.88;;;5.20;;
61685;SDS011;47592;45.904;8.978;2022-12-10T03:22:37;9.00;;;5.45;;
61685;SDS011;47592;45.904;8.978;2022-12-10T03:25:05;8.50;;;5.60;;
61685;SDS011;47592;45.904;8.978;2022-12-10T03:27:31;8.85;;;5.78;;
61685;SDS011;47592;45.904;8.978;2022-12-10T03:29:57;8.98;;;5.88;;
61685;SDS011;47592;45.904;8.978;2022-12-10T03:32:24;8.18;;;5.65;;
61685;SDS011;47592;45.904;8.978;2022-12-10T03:34:51;10.10;;;6.10;;
61685;SDS011;47592;45.904;8.978;2022-12-10T03:37:18;10.15;;;6.40;;
61685;SDS011;47592;45.904;8.978;2022-12-10T03:39:45;9.25;;;5.97;;
61685;SDS011;47592;45.904;8.978;2022-12-10T03:42:11;9.40;;;5.72;;
61685;SDS011;47592;45.904;8.978;2022-12-10T03:44:37;9.27;;;5.82;;
61685;SDS011;47592;45.904;8.978;2022-12-10T03:47:05;8.73;;;6.18;;
61685;SDS011;47592;45.904;8.978;2022-12-10T03:49:33;8.68;;;5.80;;
61685;SDS011;47592;45.904;8.978;2022-12-10T03:51:59;8.80;;;5.88;;
61685;SDS011;47592;45.904;8.978;2022-12-10T03:54:24;9.70;;;6.63;;
61685;SDS011;47592;45.904;8.978;2022-12-10T03:56:50;8.85;;;5.80;;
61685;SDS011;47592;45.904;8.978;2022-12-10T03:59:15;9.38;;;6.13;;
61685;SDS011;47592;45.904;8.978;2022-12-10T04:01:40;8.70;;;5.57;;
61685;SDS011;47592;45.904;8.978;2022-12-10T04:04:06;8.07;;;5.43;;
61685;SDS011;47592;45.904;8.978;2022-12-10T04:06:32;10.20;;;5.72;;
61685;SDS011;47592;45.904;8.978;2022-12-10T04:08:57;8.20;;;5.40;;
61685;SDS011;47592;45.904;8.978;2022-12-10T04:11:23;9.43;;;5.75;;
61685;SDS011;47592;45.904;8.978;2022-12-10T04:13:49;9.52;;;5.20;;
61685;SDS011;47592;45.904;8.978;2022-12-10T04:16:32;8.55;;;5.30;;
61685;SDS011;47592;45.904;8.978;2022-12-10T04:19:06;8.77;;;5.97;;
61685;SDS011;47592;45.904;8.978;2022-12-10T04:21:34;8.73;;;5.47;;
61685;SDS011;47592;45.904;8.978;2022-12-10T04:24:20;9.55;;;5.65;;
61685;SDS011;47592;45.904;8.978;2022-12-10T04:27:08;9.35;;;5.43;;
61685;SDS011;47592;45.904;8.978;2022-12-10T04:29:36;9.48;;;5.72;;
61685;SDS011;47592;45.904;8.978;2022-12-10T04:32:01;8.57;;;5.38;;
61685;SDS011;47592;45.904;8.978;2022-12-10T04:34:27;9.07;;;5.00;;
61685;SDS011;47592;45.904;8.978;2022-12-10T04:36:53;7.45;;;4.70;;
61685;SDS011;47592;45.904;8.978;2022-12-10T04:39:18;8.77;;;5.70;;
61685;SDS011;47592;45.904;8.978;2022-12-10T04:41:45;9.52;;;6.10;;
61685;SDS011;47592;45.904;8.978;2022-12-10T04:44:12;9.70;;;5.38;;
61685;SDS011;47592;45.904;8.978;2022-12-10T04:46:38;9.32;;;5.50;;
61685;SDS011;47592;45.904;8.978;2022-12-10T04:49:04;8.65;;;5.60;;
61685;SDS011;47592;45.904;8.978;2022-12-10T04:51:30;9.63;;;5.80;;
61685;SDS011;47592;45.904;8.978;2022-12-10T04:53:56;8.63;;;5.15;;
61685;SDS011;47592;45.904;8.978;2022-12-10T04:56:22;9.30;;;5.60;;
61685;SDS011;47592;45.904;8.978;2022-12-10T04:58:47;9.63;;;6.05;;
61685;SDS011;47592;45.904;8.978;2022-12-10T05:01:13;10.23;;;5.80;;
61685;SDS011;47592;45.904;8.978;2022-12-10T05:03:39;8.05;;;5.47;;
61685;SDS011;47592;45.904;8.978;2022-12-10T05:06:06;9.93;;;5.65;;
61685;SDS011;47592;45.904;8.978;2022-12-10T05:08:33;8.45;;;5.82;;
61685;SDS011;47592;45.904;8.978;2022-12-10T05:11:02;9.43;;;6.03;;
61685;SDS011;47592;45.904;8.978;2022-12-10T05:13:33;9.05;;;5.50;;
61685;SDS011;47592;45.904;8.978;2022-12-10T05:16:00;7.60;;;5.18;;
61685;SDS011;47592;45.904;8.978;2022-12-10T05:18:27;9.50;;;5.50;;
61685;SDS011;47592;45.904;8.978;2022-12-10T05:20:52;8.18;;;5.05;;
61685;SDS011;47592;45.904;8.978;2022-12-10T05:23:18;8.57;;;5.50;;
61685;SDS011;47592;45.904;8.978;2022-12-10T05:28:29;9.27;;;5.63;;
61685;SDS011;47592;45.904;8.978;2022-12-10T05:30:55;8.52;;;4.88;;
61685;SDS011;47592;45.904;8.978;2022-12-10T05:33:21;7.35;;;4.95;;
61685;SDS011;47592;45.904;8.978;2022-12-10T05:36:00;8.63;;;5.10;;
61685;SDS011;47592;45.904;8.978;2022-12-10T05:38:26;8.57;;;5.72;;
61685;SDS011;47592;45.904;8.978;2022-12-10T05:40:53;7.57;;;4.70;;
61685;SDS011;47592;45.904;8.978;2022-12-10T05:43:19;7.85;;;4.95;;
61685;SDS011;47592;45.904;8.978;2022-12-10T05:45:44;8.73;;;4.88;;
61685;SDS011;47592;45.904;8.978;2022-12-10T05:48:11;7.45;;;4.47;;
61685;SDS011;47592;45.904;8.978;2022-12-10T05:50:37;8.57;;;5.43;;
61685;SDS011;47592;45.904;8.978;2022-12-10T05:53:02;8.00;;;5.20;;
61685;SDS011;47592;45.904;8.978;2022-12-10T05:55:28;8.82;;;5.40;;
61685;SDS011;47592;45.904;8.978;2022-12-10T05:57:54;8.13;;;5.43;;
61685;SDS011;47592;45.904;8.978;2022-12-10T06:00:21;8.18;;;5.35;;
61685;SDS011;47592;45.904;8.978;2022-12-10T06:02:51;7.70;;;4.95;;
61685;SDS011;47592;45.904;8.978;2022-12-10T06:05:17;8.00;;;4.90;;
61685;SDS011;47592;45.904;8.978;2022-12-10T06:07:42;9.05;;;5.53;;
61685;SDS011;47592;45.904;8.978;2022-12-10T06:10:09;7.53;;;4.35;;
61685;SDS011;47592;45.904;8.978;2022-12-10T06:12:35;7.90;;;5.25;;
61685;SDS011;47592;45.904;8.978;2022-12-10T06:15:01;8.57;;;5.63;;
61685;SDS011;47592;45.904;8.978;2022-12-10T06:17:26;8.10;;;5.20;;
61685;SDS011;47592;45.904;8.978;2022-12-10T06:19:52;9.15;;;5.80;;
61685;SDS011;47592;45.904;8.978;2022-12-10T06:22:17;6.85;;;4.65;;
61685;SDS011;47592;45.904;8.978;2022-12-10T06:24:43;7.60;;;4.43;;
61685;SDS011;47592;45.904;8.978;2022-12-10T06:27:08;7.72;;;4.68;;
61685;SDS011;47592;45.904;8.978;2022-12-10T06:29:34;7.60;;;4.22;;
61685;SDS011;47592;45.904;8.978;2022-12-10T06:32:00;7.55;;;4.57;;
61685;SDS011;47592;45.904;8.978;2022-12-10T06:34:25;6.70;;;4.18;;
61685;SDS011;47592;45.904;8.978;2022-12-10T06:36:51;6.90;;;4.10;;
61685;SDS011;47592;45.904;8.978;2022-12-10T06:39:16;6.22;;;3.78;;
61685;SDS011;47592;45.904;8.978;2022-12-10T06:41:42;6.03;;;3.35;;
61685;SDS011;47592;45.904;8.978;2022-12-10T06:44:09;6.78;;;4.05;;
61685;SDS011;47592;45.904;8.978;2022-12-10T06:46:35;6.35;;;3.55;;
61685;SDS011;47592;45.904;8.978;2022-12-10T06:49:02;7.03;;;4.03;;
61685;SDS011;47592;45.904;8.978;2022-12-10T06:51:28;7.60;;;4.03;;
61685;SDS011;47592;45.904;8.978;2022-12-10T06:53:53;6.57;;;3.58;;
61685;SDS011;47592;45.904;8.978;2022-12-10T06:56:19;6.00;;;3.40;;
61685;SDS011;47592;45.904;8.978;2022-12-10T06:58:45;6.78;;;2.72;;
61685;SDS011;47592;45.904;8.978;2022-12-10T07:01:21;6.60;;;3.65;;
61685;SDS011;47592;45.904;8.978;2022-12-10T07:03:54;6.82;;;3.08;;
61685;SDS011;47592;45.904;8.978;2022-12-10T07:06:22;5.75;;;3.00;;
61685;SDS011;47592;45.904;8.978;2022-12-10T07:08:48;5.50;;;2.90;;
61685;SDS011;47592;45.904;8.978;2022-12-10T07:11:15;5.85;;;3.20;;
61685;SDS011;47592;45.904;8.978;2022-12-10T07:13:42;6.47;;;3.25;;
61685;SDS011;47592;45.904;8.978;2022-12-10T07:16:21;6.18;;;3.20;;
61685;SDS011;47592;45.904;8.978;2022-12-10T07:18:51;5.38;;;2.80;;
61685;SDS011;47592;45.904;8.978;2022-12-10T07:23:51;5.68;;;3.10;;
61685;SDS011;47592;45.904;8.978;2022-12-10T07:26:19;6.20;;;3.35;;
61685;SDS011;47592;45.904;8.978;2022-12-10T07:28:45;5.43;;;2.83;;
61685;SDS011;47592;45.904;8.978;2022-12-10T07:31:11;5.40;;;2.90;;
61685;SDS011;47592;45.904;8.978;2022-12-10T07:33:36;5.00;;;2.28;;
61685;SDS011;47592;45.904;8.978;2022-12-10T07:36:03;5.28;;;2.53;;
61685;SDS011;47592;45.904;8.978;2022-12-10T07:38:30;5.15;;;2.65;;
61685;SDS011;47592;45.904;8.978;2022-12-10T07:40:56;5.68;;;3.03;;
61685;SDS011;47592;45.904;8.978;2022-12-10T07:43:21;5.75;;;3.08;;
61685;SDS011;47592;45.904;8.978;2022-12-10T07:45:46;5.93;;;2.90;;
61685;SDS011;47592;45.904;8.978;2022-12-10T07:48:12;5.93;;;2.97;;
61685;SDS011;47592;45.904;8.978;2022-12-10T07:50:37;5.57;;;2.97;;
61685;SDS011;47592;45.904;8.978;2022-12-10T07:53:03;6.20;;;3.08;;
61685;SDS011;47592;45.904;8.978;2022-12-10T07:55:28;6.10;;;3.15;;
61685;SDS011;47592;45.904;8.978;2022-12-10T07:57:54;4.90;;;2.40;;
61685;SDS011;47592;45.904;8.978;2022-12-10T08:00:19;5.38;;;2.70;;
61685;SDS011;47592;45.904;8.978;2022-12-10T08:02:45;4.88;;;2.40;;
61685;SDS011;47592;45.904;8.978;2022-12-10T08:05:10;4.65;;;2.20;;
61685;SDS011;47592;45.904;8.978;2022-12-10T08:07:36;4.47;;;2.33;;
61685;SDS011;47592;45.904;8.978;2022-12-10T08:10:02;4.88;;;2.25;;
61685;SDS011;47592;45.904;8.978;2022-12-10T08:12:28;5.05;;;1.98;;
61685;SDS011;47592;45.904;8.978;2022-12-10T08:14:53;4.93;;;2.22;;
61685;SDS011;47592;45.904;8.978;2022-12-10T08:17:19;5.80;;;2.80;;
61685;SDS011;47592;45.904;8.978;2022-12-10T08:19:44;5.82;;;3.17;;
61685;SDS011;47592;45.904;8.978;2022-12-10T08:22:10;4.80;;;2.65;;
61685;SDS011;47592;45.904;8.978;2022-12-10T08:24:35;5.20;;;2.75;;
61685;SDS011;47592;45.904;8.978;2022-12-10T08:27:01;6.28;;;2.90;;
61685;SDS011;47592;45.904;8.978;2022-12-10T08:29:26;5.95;;;3.00;;
61685;SDS011;47592;45.904;8.978;2022-12-10T08:31:52;5.97;;;2.88;;
61685;SDS011;47592;45.904;8.978;2022-12-10T08:34:17;6.10;;;3.33;;
61685;SDS011;47592;45.904;8.978;2022-12-10T08:36:44;7.25;;;3.20;;
61685;SDS011;47592;45.904;8.978;2022-12-10T08:39:10;8.18;;;3.78;;
61685;SDS011;47592;45.904;8.978;2022-12-10T08:41:40;8.70;;;4.80;;
61685;SDS011;47592;45.904;8.978;2022-12-10T08:44:07;7.25;;;3.15;;
61685;SDS011;47592;45.904;8.978;2022-12-10T08:46:32;5.63;;;2.90;;
61685;SDS011;47592;45.904;8.978;2022-12-10T08:48:58;6.75;;;3.20;;
61685;SDS011;47592;45.904;8.978;2022-12-10T08:51:23;6.05;;;3.63;;
61685;SDS011;47592;45.904;8.978;2022-12-10T08:53:49;6.53;;;3.42;;
61685;SDS011;47592;45.904;8.978;2022-12-10T08:56:15;6.72;;;4.10;;
61685;SDS011;47592;45.904;8.978;2022-12-10T08:58:40;7.90;;;4.80;;
61685;SDS011;47592;45.904;8.978;2022-12-10T09:01:07;6.93;;;3.70;;
61685;SDS011;47592;45.904;8.978;2022-12-10T09:03:34;6.20;;;3.60;;
61685;SDS011;47592;45.904;8.978;2022-12-10T09:06:05;6.40;;;3.65;;
61685;SDS011;47592;45.904;8.978;2022-12-10T09:08:33;6.10;;;3.42;;
61685;SDS011;47592;45.904;8.978;2022-12-10T09:11:22;6.05;;;3.20;;
61685;SDS011;47592;45.904;8.978;2022-12-10T09:13:50;6.00;;;3.30;;
61685;SDS011;47592;45.904;8.978;2022-12-10T09:16:16;6.60;;;3.90;;
61685;SDS011;47592;45.904;8.978;2022-12-10T09:18:41;6.18;;;3.65;;
61685;SDS011;47592;45.904;8.978;2022-12-10T09:21:07;6.15;;;3.85;;
61685;SDS011;47592;45.904;8.978;2022-12-10T09:23:35;6.88;;;3.63;;
61685;SDS011;47592;45.904;8.978;2022-12-10T09:26:01;7.38;;;3.63;;
61685;SDS011;47592;45.904;8.978;2022-12-10T09:28:31;6.55;;;3.70;;
61685;SDS011;47592;45.904;8.978;2022-12-10T09:30:57;6.20;;;2.95;;
61685;SDS011;47592;45.904;8.978;2022-12-10T09:33:25;5.30;;;2.60;;
61685;SDS011;47592;45.904;8.978;2022-12-10T09:35:51;6.32;;;3.28;;
61685;SDS011;47592;45.904;8.978;2022-12-10T09:38:17;6.20;;;3.10;;
61685;SDS011;47592;45.904;8.978;2022-12-10T09:40:45;6.22;;;3.50;;
61685;SDS011;47592;45.904;8.978;2022-12-10T09:48:49;5.70;;;3.05;;
61685;SDS011;47592;45.904;8.978;2022-12-10T09:51:34;5.38;;;2.90;;
61685;SDS011;47592;45.904;8.978;2022-12-10T09:54:03;5.78;;;2.75;;
61685;SDS011;47592;45.904;8.978;2022-12-10T09:56:37;6.78;;;2.78;;
61685;SDS011;47592;45.904;8.978;2022-12-10T10:04:46;6.07;;;3.25;;
61685;SDS011;47592;45.904;8.978;2022-12-10T10:07:26;6.82;;;3.50;;
61685;SDS011;47592;45.904;8.978;2022-12-10T10:09:55;6.10;;;3.10;;
61685;SDS011;47592;45.904;8.978;2022-12-10T10:12:23;5.40;;;3.10;;
61685;SDS011;47592;45.904;8.978;2022-12-10T10:14:48;6.00;;;3.58;;
61685;SDS011;47592;45.904;8.978;2022-12-10T10:17:16;4.82;;;2.53;;
61685;SDS011;47592;45.904;8.978;2022-12-10T10:19:43;5.75;;;3.22;;
61685;SDS011;47592;45.904;8.978;2022-12-10T10:22:09;6.03;;;3.08;;
61685;SDS011;47592;45.904;8.978;2022-12-10T10:24:40;5.47;;;3.08;;
61685;SDS011;47592;45.904;8.978;2022-12-10T10:27:14;5.97;;;3.30;;
61685;SDS011;47592;45.904;8.978;2022-12-10T10:29:41;6.65;;;3.58;;
61685;SDS011;47592;45.904;8.978;2022-12-10T10:32:13;6.20;;;3.35;;
61685;SDS011;47592;45.904;8.978;2022-12-10T10:34:40;5.70;;;3.17;;
61685;SDS011;47592;45.904;8.978;2022-12-10T10:37:06;6.32;;;3.30;;
61685;SDS011;47592;45.904;8.978;2022-12-10T10:39:32;5.88;;;3.22;;
61685;SDS011;47592;45.904;8.978;2022-12-10T10:42:09;6.50;;;3.42;;
61685;SDS011;47592;45.904;8.978;2022-12-10T10:44:35;5.47;;;2.90;;
61685;SDS011;47592;45.904;8.978;2022-12-10T10:47:03;5.10;;;2.65;;
61685;SDS011;47592;45.904;8.978;2022-12-10T10:49:49;6.65;;;3.05;;
61685;SDS011;47592;45.904;8.978;2022-12-10T10:52:15;5.65;;;2.78;;
61685;SDS011;47592;45.904;8.978;2022-12-10T10:54:42;7.60;;;2.72;;
61685;SDS011;47592;45.904;8.978;2022-12-10T10:57:20;5.95;;;2.90;;
61685;SDS011;47592;45.904;8.978;2022-12-10T10:59:55;5.90;;;2.80;;
61685;SDS011;47592;45.904;8.978;2022-12-10T11:02:26;5.72;;;2.85;;
61685;SDS011;47592;45.904;8.978;2022-12-10T11:04:55;4.90;;;2.28;;
61685;SDS011;47592;45.904;8.978;2022-12-10T11:07:34;4.97;;;2.40;;
61685;SDS011;47592;45.904;8.978;2022-12-10T11:10:02;5.00;;;2.67;;
61685;SDS011;47592;45.904;8.978;2022-12-10T11:12:36;5.63;;;2.45;;
61685;SDS011;47592;45.904;8.978;2022-12-10T11:17:48;6.88;;;3.25;;
61685;SDS011;47592;45.904;8.978;2022-12-10T11:22:49;5.05;;;2.63;;
61685;SDS011;47592;45.904;8.978;2022-12-10T11:30:39;4.88;;;2.40;;
61685;SDS011;47592;45.904;8.978;2022-12-10T11:33:20;4.40;;;1.83;;
61685;SDS011;47592;45.904;8.978;2022-12-10T11:38:50;4.53;;;2.00;;
61685;SDS011;47592;45.904;8.978;2022-12-10T11:46:38;4.43;;;1.70;;
61685;SDS011;47592;45.904;8.978;2022-12-10T11:57:13;3.95;;;1.60;;
61685;SDS011;47592;45.904;8.978;2022-12-10T12:00:08;4.57;;;1.60;;
61685;SDS011;47592;45.904;8.978;2022-12-10T12:08:19;2.67;;;1.10;;
61685;SDS011;47592;45.904;8.978;2022-12-10T12:11:15;4.38;;;1.60;;
61685;SDS011;47592;45.904;8.978;2022-12-10T12:16:18;4.65;;;1.33;;
61685;SDS011;47592;45.904;8.978;2022-12-10T12:18:55;4.07;;;1.25;;
61685;SDS011;47592;45.904;8.978;2022-12-10T12:21:26;3.50;;;1.35;;
61685;SDS011;47592;45.904;8.978;2022-12-10T12:23:54;3.83;;;1.20;;
61685;SDS011;47592;45.904;8.978;2022-12-10T12:34:47;4.10;;;1.42;;
61685;SDS011;47592;45.904;8.978;2022-12-10T12:37:16;3.85;;;1.40;;
61685;SDS011;47592;45.904;8.978;2022-12-10T12:39:46;5.32;;;1.38;;
61685;SDS011;47592;45.904;8.978;2022-12-10T12:42:27;3.85;;;1.35;;
61685;SDS011;47592;45.904;8.978;2022-12-10T12:47:32;3.90;;;1.60;;
61685;SDS011;47592;45.904;8.978;2022-12-10T12:50:03;3.50;;;1.40;;
61685;SDS011;47592;45.904;8.978;2022-12-10T12:52:49;3.20;;;1.17;;
61685;SDS011;47592;45.904;8.978;2022-12-10T12:55:38;3.70;;;1.33;;
61685;SDS011;47592;45.904;8.978;2022-12-10T12:58:26;3.42;;;1.27;;
61685;SDS011;47592;45.904;8.978;2022-12-10T13:00:57;2.88;;;1.30;;
61685;SDS011;47592;45.904;8.978;2022-12-10T13:03:34;3.80;;;1.40;;
61685;SDS011;47592;45.904;8.978;2022-12-10T13:06:13;3.53;;;1.40;;
61685;SDS011;47592;45.904;8.978;2022-12-10T13:08:44;3.50;;;1.30;;
61685;SDS011;47592;45.904;8.978;2022-12-10T13:11:16;5.25;;;1.50;;
61685;SDS011;47592;45.904;8.978;2022-12-10T13:14:11;3.47;;;1.20;;
61685;SDS011;47592;45.904;8.978;2022-12-10T13:24:17;3.20;;;1.00;;
61685;SDS011;47592;45.904;8.978;2022-12-10T13:32:22;6.30;;;1.20;;
61685;SDS011;47592;45.904;8.978;2022-12-10T13:37:33;3.28;;;1.25;;
61685;SDS011;47592;45.904;8.978;2022-12-10T13:42:57;3.13;;;1.05;;
61685;SDS011;47592;45.904;8.978;2022-12-10T13:45:44;3.70;;;1.00;;
61685;SDS011;47592;45.904;8.978;2022-12-10T13:48:18;2.30;;;0.82;;
61685;SDS011;47592;45.904;8.978;2022-12-10T13:51:12;4.72;;;1.05;;
61685;SDS011;47592;45.904;8.978;2022-12-10T14:07:20;3.17;;;1.13;;
61685;SDS011;47592;45.904;8.978;2022-12-10T14:09:48;6.35;;;1.30;;
61685;SDS011;47592;45.904;8.978;2022-12-10T14:12:26;3.70;;;1.15;;
61685;SDS011;47592;45.904;8.978;2022-12-10T14:14:58;3.08;;;1.10;;
61685;SDS011;47592;45.904;8.978;2022-12-10T14:17:34;2.95;;;1.08;;
61685;SDS011;47592;45.904;8.978;2022-12-10T14:20:03;2.92;;;1.00;;
61685;SDS011;47592;45.904;8.978;2022-12-10T14:22:38;3.45;;;1.15;;
61685;SDS011;47592;45.904;8.978;2022-12-10T14:25:16;2.55;;;0.90;;
61685;SDS011;47592;45.904;8.978;2022-12-10T14:27:47;4.20;;;1.55;;
61685;SDS011;47592;45.904;8.978;2022-12-10T14:30:17;5.40;;;2.67;;
61685;SDS011;47592;45.904;8.978;2022-12-10T14:32:45;7.03;;;2.55;;
61685;SDS011;47592;45.904;8.978;2022-12-10T14:35:19;5.05;;;2.42;;
61685;SDS011;47592;45.904;8.978;2022-12-10T14:37:47;5.63;;;3.17;;
61685;SDS011;47592;45.904;8.978;2022-12-10T14:40:24;6.95;;;3.88;;
61685;SDS011;47592;45.904;8.978;2022-12-10T14:43:05;7.38;;;4.10;;
61685;SDS011;47592;45.904;8.978;2022-12-10T14:45:37;6.70;;;4.32;;
61685;SDS011;47592;45.904;8.978;2022-12-10T14:48:10;6.82;;;4.43;;
61685;SDS011;47592;45.904;8.978;2022-12-10T14:50:37;7.13;;;4.47;;
61685;SDS011;47592;45.904;8.978;2022-12-10T14:53:04;7.25;;;4.28;;
61685;SDS011;47592;45.904;8.978;2022-12-10T14:55:33;6.50;;;3.85;;
61685;SDS011;47592;45.904;8.978;2022-12-10T14:58:01;6.50;;;3.92;;
61685;SDS011;47592;45.904;8.978;2022-12-10T15:00:27;7.65;;;4.68;;
61685;SDS011;47592;45.904;8.978;2022-12-10T15:02:54;6.82;;;4.00;;
61685;SDS011;47592;45.904;8.978;2022-12-10T15:05:27;7.65;;;5.07;;
61685;SDS011;47592;45.904;8.978;2022-12-10T15:08:01;8.43;;;6.03;;
61685;SDS011;47592;45.904;8.978;2022-12-10T15:13:04;11.00;;;6.85;;
61685;SDS011;47592;45.904;8.978;2022-12-10T15:15:33;8.88;;;6.32;;
61685;SDS011;47592;45.904;8.978;2022-12-10T15:18:08;10.70;;;7.05;;
61685;SDS011;47592;45.904;8.978;2022-12-10T15:20:44;10.18;;;7.10;;
61685;SDS011;47592;45.904;8.978;2022-12-10T15:28:31;10.65;;;7.82;;
61685;SDS011;47592;45.904;8.978;2022-12-10T15:33:47;10.98;;;7.50;;
61685;SDS011;47592;45.904;8.978;2022-12-10T15:38:55;12.73;;;9.07;;
61685;SDS011;47592;45.904;8.978;2022-12-10T15:47:19;12.73;;;8.80;;
61685;SDS011;47592;45.904;8.978;2022-12-10T15:49:45;11.98;;;8.48;;
61685;SDS011;47592;45.904;8.978;2022-12-10T15:52:13;12.77;;;8.48;;
61685;SDS011;47592;45.904;8.978;2022-12-10T15:54:43;13.80;;;9.88;;
61685;SDS011;47592;45.904;8.978;2022-12-10T15:57:23;16.35;;;12.45;;
61685;SDS011;47592;45.904;8.978;2022-12-10T15:59:55;17.90;;;11.95;;
61685;SDS011;47592;45.904;8.978;2022-12-10T16:02:40;19.45;;;12.20;;
61685;SDS011;47592;45.904;8.978;2022-12-10T16:07:44;16.30;;;11.10;;
61685;SDS011;47592;45.904;8.978;2022-12-10T16:10:12;17.70;;;11.48;;
61685;SDS011;47592;45.904;8.978;2022-12-10T16:12:38;16.90;;;11.55;;
61685;SDS011;47592;45.904;8.978;2022-12-10T16:15:05;15.45;;;10.07;;
61685;SDS011;47592;45.904;8.978;2022-12-10T16:17:33;16.30;;;10.45;;
61685;SDS011;47592;45.904;8.978;2022-12-10T16:20:32;15.52;;;10.93;;
61685;SDS011;47592;45.904;8.978;2022-12-10T16:22:54;16.02;;;10.48;;
61685;SDS011;47592;45.904;8.978;2022-12-10T16:25:21;13.30;;;10.10;;
61685;SDS011;47592;45.904;8.978;2022-12-10T16:27:48;16.88;;;10.40;;
61685;SDS011;47592;45.904;8.978;2022-12-10T16:32:42;15.70;;;10.32;;
61685;SDS011;47592;45.904;8.978;2022-12-10T16:35:08;15.75;;;10.30;;
61685;SDS011;47592;45.904;8.978;2022-12-10T16:37:33;17.33;;;10.57;;
61685;SDS011;47592;45.904;8.978;2022-12-10T16:39:59;13.88;;;10.00;;
61685;SDS011;47592;45.904;8.978;2022-12-10T16:42:25;13.65;;;9.48;;
61685;SDS011;47592;45.904;8.978;2022-12-10T16:44:51;13.90;;;9.02;;
61685;SDS011;47592;45.904;8.978;2022-12-10T16:47:16;16.55;;;10.05;;
61685;SDS011;47592;45.904;8.978;2022-12-10T16:49:42;14.52;;;9.73;;
61685;SDS011;47592;45.904;8.978;2022-12-10T16:52:11;14.48;;;9.93;;
61685;SDS011;47592;45.904;8.978;2022-12-10T16:54:40;16.10;;;10.20;;
61685;SDS011;47592;45.904;8.978;2022-12-10T16:57:12;14.52;;;11.05;;
61685;SDS011;47592;45.904;8.978;2022-12-10T16:59:39;16.52;;;11.73;;
61685;SDS011;47592;45.904;8.978;2022-12-10T17:02:15;18.55;;;12.30;;
61685;SDS011;47592;45.904;8.978;2022-12-10T17:04:42;19.40;;;13.02;;
61685;SDS011;47592;45.904;8.978;2022-12-10T17:07:11;18.50;;;12.55;;
61685;SDS011;47592;45.904;8.978;2022-12-10T17:09:37;20.50;;;12.77;;
61685;SDS011;47592;45.904;8.978;2022-12-10T17:12:04;18.88;;;11.65;;
61685;SDS011;47592;45.904;8.978;2022-12-10T17:14:32;17.38;;;12.27;;
61685;SDS011;47592;45.904;8.978;2022-12-10T17:16:59;22.35;;;13.75;;
61685;SDS011;47592;45.904;8.978;2022-12-10T17:19:36;19.50;;;13.80;;